Time;durP1;ratioP1;P1;durP2;ratioP2;P2;SDS_P1;SDS_P2;PMS_P1;PMS_P2;Temp;Humidity;BMP_temperature;BMP_pressure;BME280_temperature;BME280_humidity;BME280_pressure;Samples;Min_cycle;Max_cycle;Signal;HPM_P1;HPM_P2
2021/09/05 00:00:43;;;;;;;11.40;7.27;;;14.60;88.30;;;;;;4993467;28;20902;-68
2021/09/05 00:03:10;;;;;;;9.97;7.90;;;14.60;88.70;;;;;;4993410;28;20444;-68
2021/09/05 00:05:37;;;;;;;9.93;7.37;;;14.60;90.00;;;;;;4993018;28;20439;-69
2021/09/05 00:08:06;;;;;;;12.00;7.83;;;14.60;88.70;;;;;;4993361;28;20842;-69
2021/09/05 00:10:33;;;;;;;12.07;7.63;;;14.50;88.80;;;;;;4993220;28;20448;-69
2021/09/05 00:13:00;;;;;;;10.73;7.80;;;14.50;88.90;;;;;;4992657;28;20799;-68
2021/09/05 00:15:27;;;;;;;8.73;7.40;;;14.50;89.10;;;;;;4993087;28;20435;-69
2021/09/05 00:17:55;;;;;;;8.73;5.83;;;14.50;89.40;;;;;;4993059;28;20444;-69
2021/09/05 00:20:22;;;;;;;9.83;6.90;;;14.50;88.30;;;;;;4993241;28;20522;-69
2021/09/05 00:22:50;;;;;;;9.97;7.03;;;14.50;87.50;;;;;;4992922;28;20934;-69
2021/09/05 00:25:18;;;;;;;10.50;8.80;;;14.50;87.80;;;;;;4993043;28;20567;-68
2021/09/05 00:27:46;;;;;;;12.03;7.33;;;14.40;88.60;;;;;;4992812;28;20542;-71
2021/09/05 00:30:13;;;;;;;9.10;7.37;;;14.40;89.20;;;;;;4992851;28;20447;-70
2021/09/05 00:32:40;;;;;;;8.10;6.20;;;14.40;89.20;;;;;;4992747;28;20463;-68
2021/09/05 00:35:08;;;;;;;8.63;7.60;;;14.30;89.20;;;;;;4992882;28;20987;-69
2021/09/05 00:37:35;;;;;;;6.90;6.20;;;14.30;88.40;;;;;;4992625;28;20458;-68
2021/09/05 00:40:02;;;;;;;8.50;6.20;;;14.20;87.90;;;;;;4992445;28;20494;-69
2021/09/05 00:42:31;;;;;;;7.07;5.70;;;14.10;88.10;;;;;;4992294;28;20448;-69
2021/09/05 00:44:58;;;;;;;7.57;6.10;;;14.20;88.40;;;;;;4992451;28;20471;-69
2021/09/05 00:47:25;;;;;;;8.30;7.10;;;14.10;88.40;;;;;;4991288;28;20467;-69
2021/09/05 00:49:52;;;;;;;10.32;6.68;;;14.10;89.30;;;;;;4992542;28;20474;-69
2021/09/05 00:52:19;;;;;;;10.20;6.78;;;14.10;89.40;;;;;;4992231;28;20192;-69
2021/09/05 00:54:47;;;;;;;7.80;6.47;;;14.00;89.60;;;;;;4992678;28;20239;-68
2021/09/05 00:57:16;;;;;;;10.30;7.83;;;14.00;89.90;;;;;;4991964;28;20439;-72
2021/09/05 00:59:48;;;;;;;11.35;6.93;;;13.90;90.00;;;;;;4992865;28;20487;-69
2021/09/05 01:02:16;;;;;;;9.98;7.22;;;13.90;90.40;;;;;;4992802;28;20271;-69
2021/09/05 01:04:43;;;;;;;8.60;7.20;;;13.90;90.30;;;;;;4991899;28;20651;-69
2021/09/05 01:07:12;;;;;;;8.38;7.25;;;13.90;90.30;;;;;;4992279;28;21021;-69
2021/09/05 01:09:39;;;;;;;7.83;6.07;;;13.90;90.50;;;;;;4992171;28;20632;-69
2021/09/05 01:12:07;;;;;;;9.23;6.65;;;13.90;90.00;;;;;;4992104;28;20505;-69
2021/09/05 01:14:35;;;;;;;7.13;6.00;;;13.90;89.70;;;;;;4992596;28;20231;-68
2021/09/05 01:17:03;;;;;;;8.93;5.80;;;13.80;89.30;;;;;;4991958;28;20522;-69
2021/09/05 01:19:30;;;;;;;7.20;5.43;;;13.80;89.40;;;;;;4992177;28;20570;-69
2021/09/05 01:21:58;;;;;;;6.00;4.70;;;13.80;88.80;;;;;;4991877;28;20184;-69
2021/09/05 01:24:25;;;;;;;8.05;6.20;;;13.70;88.20;;;;;;4992230;28;20439;-69
2021/09/05 01:26:57;;;;;;;7.35;6.32;;;13.70;88.50;;;;;;4991986;28;20224;-69
2021/09/05 01:29:25;;;;;;;7.35;6.55;;;13.70;89.20;;;;;;4992099;28;20604;-69
2021/09/05 01:31:54;;;;;;;7.77;5.53;;;13.60;90.20;;;;;;4991903;28;20608;-69
2021/09/05 01:34:23;;;;;;;15.75;7.22;;;13.60;90.20;;;;;;4992368;28;20510;-69
2021/09/05 01:36:52;;;;;;;11.15;7.43;;;13.60;90.40;;;;;;4991947;28;20185;-69
2021/09/05 01:39:20;;;;;;;13.65;6.95;;;13.50;90.60;;;;;;4992406;28;20303;-69
2021/09/05 01:41:48;;;;;;;9.77;7.10;;;13.50;90.60;;;;;;4991876;28;20188;-69
2021/09/05 01:44:18;;;;;;;7.18;5.40;;;13.50;90.40;;;;;;4992103;28;20235;-68
2021/09/05 01:46:45;;;;;;;10.85;6.63;;;13.50;90.30;;;;;;4992003;28;20189;-71
2021/09/05 01:49:12;;;;;;;6.40;5.55;;;13.50;90.20;;;;;;4991967;28;20279;-69
2021/09/05 01:51:40;;;;;;;11.13;6.40;;;13.40;90.30;;;;;;4991681;28;20272;-69
2021/09/05 01:54:07;;;;;;;8.85;7.20;;;13.40;90.60;;;;;;4992006;28;20471;-69
2021/09/05 01:56:36;;;;;;;9.65;7.57;;;13.40;90.70;;;;;;4991518;28;20189;-69
2021/09/05 01:59:05;;;;;;;8.30;7.10;;;13.40;90.70;;;;;;4993089;28;20193;-68
2021/09/05 02:01:34;;;;;;;8.80;6.97;;;13.50;90.90;;;;;;4995424;28;20726;-68
2021/09/05 02:04:03;;;;;;;8.90;6.70;;;13.50;91.00;;;;;;4995904;28;20211;-69
2021/09/05 02:06:30;;;;;;;8.35;6.03;;;13.50;90.90;;;;;;4995327;28;20275;-69
2021/09/05 02:08:58;;;;;;;6.68;5.30;;;13.50;90.30;;;;;;4995529;28;20620;-69
2021/09/05 02:11:30;;;;;;;8.13;6.00;;;13.40;89.70;;;;;;4995080;28;20184;-69
2021/09/05 02:13:57;;;;;;;8.55;5.80;;;13.30;89.20;;;;;;4995592;28;20309;-69
2021/09/05 02:16:24;;;;;;;6.70;5.60;;;13.30;89.10;;;;;;4995049;28;20197;-68
2021/09/05 02:18:53;;;;;;;6.80;5.63;;;13.30;90.00;;;;;;4995089;28;20196;-68
2021/09/05 02:21:20;;;;;;;7.35;5.72;;;13.20;88.70;;;;;;4994901;28;20189;-69
2021/09/05 02:23:47;;;;;;;7.97;6.03;;;13.10;88.30;;;;;;4995481;28;20596;-69
2021/09/05 02:26:15;;;;;;;6.90;4.88;;;13.10;88.60;;;;;;4994324;28;20214;-72
2021/09/05 02:28:42;;;;;;;8.52;7.35;;;13.00;89.60;;;;;;4995214;28;20193;-69
2021/09/05 02:31:09;;;;;;;6.20;5.60;;;12.90;90.30;;;;;;4995078;28;20185;-69
2021/09/05 02:33:36;;;;;;;7.05;5.68;;;12.90;90.40;;;;;;4994988;28;20212;-69
2021/09/05 02:36:05;;;;;;;6.55;5.32;;;12.90;90.20;;;;;;4994964;28;20203;-68
2021/09/05 02:38:32;;;;;;;7.72;5.43;;;12.90;90.20;;;;;;4994818;28;20188;-69
2021/09/05 02:40:59;;;;;;;13.35;5.85;;;12.90;90.20;;;;;;4994794;28;20290;-70
2021/09/05 02:43:26;;;;;;;6.88;6.18;;;12.90;90.10;;;;;;4994922;28;20192;-68
2021/09/05 02:45:53;;;;;;;6.75;5.35;;;12.90;90.20;;;;;;4994529;28;20217;-68
2021/09/05 02:48:20;;;;;;;6.57;5.57;;;12.90;90.00;;;;;;4994355;28;20271;-69
2021/09/05 02:50:47;;;;;;;6.72;5.38;;;12.80;89.80;;;;;;4994577;28;20697;-68
2021/09/05 02:53:16;;;;;;;7.82;5.65;;;12.80;89.50;;;;;;4993882;28;20184;-69
2021/09/05 02:55:43;;;;;;;7.60;4.85;;;12.80;89.40;;;;;;4994780;28;20185;-69
2021/09/05 02:58:10;;;;;;;5.63;4.65;;;12.80;89.50;;;;;;4995163;28;20188;-68
2021/09/05 03:00:37;;;;;;;9.05;6.13;;;12.80;89.10;;;;;;4994272;28;20216;-68
2021/09/05 03:03:04;;;;;;;5.72;5.13;;;12.80;89.40;;;;;;4992038;28;20251;-73
2021/09/05 03:05:31;;;;;;;6.30;4.65;;;12.80;89.90;;;;;;4982596;28;20651;-68
2021/09/05 03:07:58;;;;;;;6.80;5.70;;;12.70;89.80;;;;;;4994823;28;20227;-69
2021/09/05 03:10:27;;;;;;;6.03;4.60;;;12.70;89.50;;;;;;4993621;28;20247;-68
2021/09/05 03:12:54;;;;;;;7.50;5.05;;;12.70;89.20;;;;;;4994474;28;20196;-72
2021/09/05 03:15:21;;;;;;;6.03;5.43;;;12.60;88.60;;;;;;4993987;28;20188;-69
2021/09/05 03:17:48;;;;;;;5.90;5.07;;;12.60;88.30;;;;;;4993961;28;20184;-70
2021/09/05 03:20:15;;;;;;;8.05;5.47;;;12.60;87.80;;;;;;4994373;28;20627;-76
2021/09/05 03:22:42;;;;;;;8.20;5.43;;;12.50;88.20;;;;;;4994004;28;20204;-68
2021/09/05 03:25:10;;;;;;;7.15;6.45;;;12.50;88.50;;;;;;4994248;28;20255;-68
2021/09/05 03:27:39;;;;;;;6.90;5.38;;;12.50;89.50;;;;;;4993855;28;20208;-69
2021/09/05 03:30:07;;;;;;;6.93;5.22;;;12.40;90.10;;;;;;4993778;28;20263;-68
2021/09/05 03:32:34;;;;;;;9.00;6.63;;;12.50;90.30;;;;;;4993660;28;20671;-69
2021/09/05 03:35:01;;;;;;;7.18;4.95;;;12.40;90.60;;;;;;4994019;28;20588;-69
2021/09/05 03:37:28;;;;;;;7.57;6.30;;;12.40;91.00;;;;;;4993479;28;20701;-68
2021/09/05 03:39:56;;;;;;;8.05;6.53;;;12.30;91.30;;;;;;4993881;28;20290;-68
2021/09/05 03:42:23;;;;;;;5.45;4.50;;;12.30;91.30;;;;;;4993654;28;20184;-68
2021/09/05 03:44:51;;;;;;;5.93;5.18;;;12.30;91.10;;;;;;4993638;28;20302;-69
2021/09/05 03:47:18;;;;;;;5.85;4.78;;;12.30;90.70;;;;;;4993173;28;20280;-71
2021/09/05 03:49:46;;;;;;;5.80;4.63;;;12.30;90.50;;;;;;4993887;28;20572;-69
2021/09/05 03:52:13;;;;;;;8.05;5.68;;;12.30;90.50;;;;;;4993163;28;20188;-69
2021/09/05 03:54:40;;;;;;;5.85;5.18;;;12.30;90.30;;;;;;4993384;28;20189;-68
2021/09/05 03:57:07;;;;;;;7.25;5.47;;;12.30;90.10;;;;;;4992422;28;20658;-69
2021/09/05 03:59:34;;;;;;;6.20;5.20;;;12.30;89.90;;;;;;4993294;28;20565;-68
2021/09/05 04:02:03;;;;;;;6.25;5.30;;;12.30;89.80;;;;;;4993123;28;20239;-68
2021/09/05 04:04:30;;;;;;;8.57;4.68;;;12.30;89.70;;;;;;4993698;28;20200;-69
2021/09/05 04:07:03;;;;;;;6.15;4.30;;;12.20;89.80;;;;;;4993392;28;20208;-68
2021/09/05 04:12:16;;;;;;;6.15;4.30;;;12.10;90.10;;;;;;4993960;28;20195;-68
2021/09/05 04:14:43;;;;;;;5.32;4.07;;;12.10;90.20;;;;;;4992507;28;20184;-69
2021/09/05 04:17:12;;;;;;;4.80;3.88;;;12.10;90.10;;;;;;4993146;28;20247;-68
2021/09/05 04:19:39;;;;;;;5.88;4.30;;;12.10;89.90;;;;;;4993461;28;20224;-69
2021/09/05 04:22:06;;;;;;;5.68;4.50;;;12.10;89.60;;;;;;4993026;28;20228;-69
2021/09/05 04:24:33;;;;;;;4.57;4.00;;;12.10;89.70;;;;;;4993210;28;20204;-68
2021/09/05 04:27:00;;;;;;;4.75;4.22;;;12.00;89.50;;;;;;4992797;28;20200;-68
2021/09/05 04:29:27;;;;;;;5.07;3.75;;;12.00;89.20;;;;;;4992747;28;20647;-68
2021/09/05 04:31:54;;;;;;;5.32;4.20;;;11.80;88.90;;;;;;4992683;28;20192;-70
2021/09/05 04:34:23;;;;;;;5.32;3.90;;;11.80;89.50;;;;;;4993255;28;20196;-69
2021/09/05 04:36:50;;;;;;;3.90;3.40;;;11.70;90.10;;;;;;4992914;28;20651;-68
2021/09/05 04:39:17;;;;;;;5.88;4.32;;;11.70;90.50;;;;;;4992479;28;20227;-68
2021/09/05 04:41:45;;;;;;;6.25;4.47;;;11.70;90.70;;;;;;4992693;28;20208;-68
2021/09/05 04:44:12;;;;;;;5.63;5.03;;;11.70;90.60;;;;;;4992940;28;20269;-71
2021/09/05 04:46:40;;;;;;;6.28;4.20;;;11.80;90.50;;;;;;4973330;28;20268;-69
2021/09/05 04:49:07;;;;;;;4.22;3.70;;;11.80;90.50;;;;;;4973758;28;20553;-69
2021/09/05 04:51:35;;;;;;;5.10;3.90;;;11.80;90.30;;;;;;4972632;28;20674;-68
2021/09/05 04:54:02;;;;;;;5.78;3.80;;;11.80;90.10;;;;;;4973206;28;20221;-70
2021/09/05 04:56:29;;;;;;;6.15;5.40;;;11.80;90.10;;;;;;4973213;28;20187;-68
2021/09/05 04:58:57;;;;;;;6.30;4.60;;;11.70;90.30;;;;;;4973474;28;20201;-69
2021/09/05 05:01:24;;;;;;;6.78;5.25;;;11.70;90.40;;;;;;4972857;28;20271;-69
2021/09/05 05:03:51;;;;;;;11.13;6.70;;;11.70;90.50;;;;;;4973700;28;20247;-69
2021/09/05 05:06:18;;;;;;;7.03;5.40;;;11.80;90.80;;;;;;4972788;28;20247;-69
2021/09/05 05:08:47;;;;;;;8.23;6.80;;;11.80;91.00;;;;;;4973408;28;20225;-69
2021/09/05 05:11:16;;;;;;;8.38;7.47;;;11.70;91.40;;;;;;4972693;28;20231;-68
2021/09/05 05:13:43;;;;;;;7.53;5.80;;;11.80;91.80;;;;;;4973772;28;20197;-68
2021/09/05 05:16:10;;;;;;;6.57;5.40;;;11.80;92.20;;;;;;4973204;28;20533;-70
2021/09/05 05:18:37;;;;;;;8.10;6.93;;;11.90;92.60;;;;;;4973291;28;20295;-69
2021/09/05 05:21:04;;;;;;;7.80;6.30;;;11.90;92.80;;;;;;4972485;28;20312;-68
2021/09/05 05:23:32;;;;;;;7.43;6.65;;;12.00;92.70;;;;;;4973204;28;20204;-68
2021/09/05 05:26:00;;;;;;;9.40;6.60;;;12.10;92.70;;;;;;4972460;28;20651;-68
2021/09/05 05:28:27;;;;;;;7.85;6.45;;;12.10;92.90;;;;;;4972792;28;20193;-69
2021/09/05 05:30:55;;;;;;;8.23;7.25;;;12.20;92.90;;;;;;4972997;28;20185;-69
2021/09/05 05:33:22;;;;;;;8.73;6.50;;;12.20;92.80;;;;;;4973083;28;20201;-68
2021/09/05 05:35:49;;;;;;;8.18;6.45;;;12.30;92.90;;;;;;4976742;28;20588;-68
2021/09/05 05:38:16;;;;;;;7.53;6.30;;;12.40;93.00;;;;;;4976749;28;20197;-68
2021/09/05 05:40:43;;;;;;;7.78;6.85;;;12.50;93.00;;;;;;4976922;28;20605;-68
2021/09/05 05:43:12;;;;;;;8.50;6.53;;;12.60;92.90;;;;;;4976855;28;20185;-68
2021/09/05 05:45:39;;;;;;;8.57;6.53;;;12.60;92.80;;;;;;4987725;28;20216;-69
2021/09/05 05:48:07;;;;;;;8.07;6.82;;;12.70;93.10;;;;;;4996008;28;20188;-69
2021/09/05 05:50:34;;;;;;;8.95;5.85;;;12.80;93.30;;;;;;4995848;28;20189;-71
2021/09/05 05:53:01;;;;;;;7.82;5.40;;;12.90;93.30;;;;;;4996130;28;20246;-68
2021/09/05 05:55:28;;;;;;;9.15;6.15;;;13.10;93.30;;;;;;4995660;28;20643;-68
2021/09/05 05:57:55;;;;;;;6.65;5.57;;;13.20;93.30;;;;;;4995975;28;20276;-68
2021/09/05 06:00:26;;;;;;;7.13;5.80;;;13.30;93.40;;;;;;4995509;28;20592;-69
2021/09/05 06:02:53;;;;;;;7.75;6.28;;;13.40;93.10;;;;;;4996063;28;20286;-68
2021/09/05 06:05:21;;;;;;;6.90;5.63;;;13.50;93.60;;;;;;4995594;28;20243;-69
2021/09/05 06:07:48;;;;;;;10.20;7.32;;;13.60;94.00;;;;;;4995997;28;20597;-70
2021/09/05 06:10:16;;;;;;;10.75;7.38;;;13.70;94.00;;;;;;4995739;28;20197;-68
2021/09/05 06:12:46;;;;;;;9.83;7.60;;;13.90;94.10;;;;;;4995998;28;20199;-68
2021/09/05 06:15:13;;;;;;;12.45;8.40;;;14.00;94.10;;;;;;4995659;28;20439;-69
2021/09/05 06:17:42;;;;;;;9.77;7.40;;;14.10;93.70;;;;;;4996111;28;20199;-69
2021/09/05 06:20:10;;;;;;;9.53;7.13;;;14.20;93.40;;;;;;4995760;28;20438;-68
2021/09/05 06:22:37;;;;;;;9.43;6.90;;;14.30;93.50;;;;;;4995807;28;20444;-68
2021/09/05 06:25:05;;;;;;;6.70;6.00;;;14.40;93.70;;;;;;4995534;28;20805;-69
2021/09/05 06:27:32;;;;;;;8.40;6.60;;;14.50;93.60;;;;;;4995606;28;20443;-69
2021/09/05 06:30:00;;;;;;;9.17;7.30;;;14.60;93.80;;;;;;4995471;28;20476;-69
2021/09/05 06:32:28;;;;;;;9.70;6.40;;;14.80;94.00;;;;;;4995390;28;20440;-69
2021/09/05 06:34:57;;;;;;;7.20;6.33;;;15.00;94.00;;;;;;4995223;28;20447;-69
2021/09/05 06:37:25;;;;;;;8.37;6.50;;;15.10;93.90;;;;;;4995341;28;20451;-68
2021/09/05 06:39:52;;;;;;;8.00;6.50;;;15.30;94.20;;;;;;4995506;28;20947;-69
2021/09/05 06:42:19;;;;;;;7.70;6.63;;;15.50;93.50;;;;;;4995749;28;20931;-69
2021/09/05 06:44:46;;;;;;;8.57;6.27;;;15.60;93.60;;;;;;4994765;28;20464;-69
2021/09/05 06:47:13;;;;;;;10.93;6.93;;;15.80;93.90;;;;;;4994726;28;20446;-69
2021/09/05 06:49:40;;;;;;;10.00;8.07;;;15.90;93.70;;;;;;4995125;28;20486;-69
2021/09/05 06:52:09;;;;;;;8.63;7.30;;;16.10;93.60;;;;;;4995129;28;20439;-68
2021/09/05 06:54:36;;;;;;;9.30;6.60;;;16.20;93.50;;;;;;4994785;28;20490;-69
2021/09/05 06:57:04;;;;;;;14.10;6.60;;;16.40;93.50;;;;;;4995654;28;20770;-69
2021/09/05 06:59:31;;;;;;;9.53;7.30;;;16.60;93.40;;;;;;4995080;28;20807;-68
2021/09/05 07:01:58;;;;;;;8.20;6.70;;;16.70;93.00;;;;;;4995137;28;20533;-68
2021/09/05 07:04:25;;;;;;;9.57;6.73;;;16.90;92.60;;;;;;4994911;28;20923;-68
2021/09/05 07:06:52;;;;;;;11.00;7.43;;;17.10;92.60;;;;;;4995186;28;20440;-69
2021/09/05 07:09:21;;;;;;;9.10;6.90;;;17.40;92.80;;;;;;4994799;28;20443;-69
2021/09/05 07:11:48;;;;;;;10.40;6.80;;;17.70;92.70;;;;;;4994764;28;20478;-69
2021/09/05 07:14:15;;;;;;;7.47;6.37;;;18.00;92.60;;;;;;4994815;28;20439;-68
2021/09/05 07:16:42;;;;;;;9.73;6.70;;;18.30;90.80;;;;;;4994535;28;20443;-69
2021/09/05 07:19:09;;;;;;;8.90;6.40;;;18.70;91.30;;;;;;4995161;28;20506;-69
2021/09/05 07:21:36;;;;;;;7.23;6.40;;;19.10;90.80;;;;;;4994254;28;20475;-69
2021/09/05 07:24:04;;;;;;;7.37;6.67;;;19.60;90.10;;;;;;4991084;28;20440;-69
2021/09/05 07:26:32;;;;;;;6.43;5.83;;;20.20;90.10;;;;;;4988367;28;20436;-69
2021/09/05 07:28:59;;;;;;;10.93;5.60;;;20.90;90.50;;;;;;4976781;28;20445;-69
2021/09/05 07:31:26;;;;;;;6.93;6.20;;;21.70;89.30;;;;;;4986755;28;20575;-70
2021/09/05 07:33:53;;;;;;;7.20;5.50;;;22.80;83.00;;;;;;4974917;28;20441;-69
2021/09/05 07:36:20;;;;;;;8.70;5.90;;;24.00;75.90;;;;;;4985656;28;20531;-69
2021/09/05 07:38:47;;;;;;;6.70;5.33;;;25.60;70.10;;;;;;4991389;28;20443;-69
2021/09/05 07:41:14;;;;;;;7.87;6.00;;;28.10;61.90;;;;;;4991770;28;20483;-71
2021/09/05 07:43:43;;;;;;;6.77;6.07;;;30.00;54.70;;;;;;4981315;28;20439;-70
2021/09/05 07:46:10;;;;;;;7.53;6.63;;;31.80;49.50;;;;;;4991910;28;20472;-69
2021/09/05 07:48:37;;;;;;;7.00;6.17;;;33.40;44.70;;;;;;4991473;28;20439;-69
2021/09/05 07:51:04;;;;;;;6.10;4.90;;;35.10;39.50;;;;;;4990636;28;20450;-71
2021/09/05 07:53:31;;;;;;;6.07;5.47;;;36.40;35.00;;;;;;4991228;28;20517;-70
2021/09/05 07:55:59;;;;;;;6.57;5.90;;;37.50;32.30;;;;;;4991281;28;20444;-70
2021/09/05 07:58:27;;;;;;;5.83;5.23;;;38.50;30.10;;;;;;4991220;28;20454;-71
2021/09/05 08:00:56;;;;;;;7.20;5.87;;;39.50;29.40;;;;;;4990149;28;20440;-71
2021/09/05 08:03:23;;;;;;;8.30;5.23;;;40.20;26.40;;;;;;4991992;28;20455;-69
2021/09/05 08:05:50;;;;;;;7.20;5.70;;;40.90;27.50;;;;;;4976004;28;20539;-68
2021/09/05 08:08:18;;;;;;;5.50;5.00;;;41.90;25.50;;;;;;4981036;28;20927;-73
2021/09/05 08:10:45;;;;;;;5.83;5.13;;;42.60;24.80;;;;;;4991024;28;20471;-69
2021/09/05 08:13:12;;;;;;;7.10;4.90;;;43.30;24.90;;;;;;4991743;28;20535;-68
2021/09/05 08:15:39;;;;;;;6.00;5.20;;;44.20;22.00;;;;;;4990893;28;20527;-68
2021/09/05 08:18:08;;;;;;;8.10;5.40;;;44.90;21.70;;;;;;4991392;28;20538;-68
2021/09/05 08:20:35;;;;;;;6.77;5.40;;;45.40;21.90;;;;;;4986774;28;20439;-68
2021/09/05 08:23:03;;;;;;;6.17;4.87;;;45.80;21.10;;;;;;4990997;28;20575;-68
2021/09/05 08:25:30;;;;;;;6.07;5.53;;;46.30;20.50;;;;;;4979060;28;20452;-68
2021/09/05 08:27:57;;;;;;;5.77;4.73;;;46.90;20.50;;;;;;4973962;28;20516;-69
2021/09/05 08:30:24;;;;;;;5.70;5.10;;;47.50;19.20;;;;;;4984383;28;20447;-69
2021/09/05 08:32:51;;;;;;;5.10;4.63;;;47.90;18.20;;;;;;4990697;28;20483;-69
2021/09/05 08:35:20;;;;;;;5.00;4.50;;;48.30;18.60;;;;;;4990567;28;20535;-69
2021/09/05 08:37:47;;;;;;;5.83;5.03;;;48.90;17.60;;;;;;4990043;28;20871;-69
2021/09/05 08:40:15;;;;;;;5.63;5.03;;;49.30;16.60;;;;;;4991041;28;20443;-68
2021/09/05 08:42:43;;;;;;;5.63;5.10;;;49.60;16.20;;;;;;4989950;28;20621;-70
2021/09/05 08:45:14;;;;;;;5.33;4.83;;;50.10;16.40;;;;;;4990516;28;20474;-70
2021/09/05 08:47:43;;;;;;;5.43;4.93;;;50.40;15.50;;;;;;4978980;28;20454;-70
2021/09/05 08:50:11;;;;;;;4.80;4.40;;;50.70;15.50;;;;;;4988636;28;20444;-69
2021/09/05 08:52:40;;;;;;;5.80;5.30;;;50.80;15.10;;;;;;4990133;28;20494;-69
2021/09/05 08:55:11;;;;;;;6.20;4.90;;;51.00;15.20;;;;;;4990991;28;20436;-69
2021/09/05 08:57:38;;;;;;;5.20;4.70;;;51.30;14.80;;;;;;4990386;28;20440;-69
2021/09/05 09:00:06;;;;;;;5.80;5.20;;;51.60;14.50;;;;;;4990743;28;20985;-68
2021/09/05 09:02:48;;;;;;;5.20;4.50;;;51.70;14.10;;;;;;4989632;28;20538;-70
2021/09/05 09:05:16;;;;;;;5.73;5.23;;;51.90;14.50;;;;;;4977207;28;20988;-70
2021/09/05 09:07:48;;;;;;;6.53;4.67;;;52.20;14.00;;;;;;4989432;28;20465;-69
2021/09/05 09:10:16;;;;;;;5.63;5.13;;;52.50;13.90;;;;;;4989970;28;20923;-69
2021/09/05 09:12:46;;;;;;;5.83;5.33;;;52.90;13.40;;;;;;4989488;28;21028;-70
2021/09/05 09:15:25;;;;;;;5.80;5.30;;;53.20;13.10;;;;;;4989338;28;20444;-75
2021/09/05 09:17:55;;;;;;;5.07;4.57;;;53.20;12.60;;;;;;4978970;28;20928;-69
2021/09/05 09:20:40;;;;;;;5.53;5.03;;;53.00;13.00;;;;;;4973638;28;20823;-70
2021/09/05 09:23:12;;;;;;;6.33;5.73;;;53.00;13.00;;;;;;4985097;28;20443;-69
2021/09/05 09:25:50;;;;;;;5.30;4.80;;;53.20;13.50;;;;;;4977329;28;20966;-69
2021/09/05 09:28:26;;;;;;;5.20;4.63;;;53.60;13.20;;;;;;4985755;28;20436;-69
2021/09/05 09:30:54;;;;;;;5.40;4.90;;;53.80;12.30;;;;;;4973103;28;20440;-69
2021/09/05 09:33:22;;;;;;;5.77;4.40;;;53.90;13.10;;;;;;4985937;28;20491;-70
2021/09/05 09:35:51;;;;;;;5.20;4.70;;;53.80;13.00;;;;;;4970333;28;20444;-72
2021/09/05 09:38:27;;;;;;;4.90;4.40;;;54.00;12.80;;;;;;4981270;28;21287;-74
2021/09/05 09:41:20;;;;;;;5.47;4.97;;;54.30;12.90;;;;;;4973726;28;20443;-70
2021/09/05 09:43:55;;;;;;;6.20;4.70;;;54.80;12.00;;;;;;4969690;28;20503;-72
2021/09/05 09:46:24;;;;;;;5.60;5.00;;;55.20;11.50;;;;;;4983107;28;20460;-76
2021/09/05 09:48:52;;;;;;;5.60;5.03;;;55.30;11.80;;;;;;4970127;28;20548;-69
2021/09/05 09:51:20;;;;;;;4.73;4.33;;;55.50;11.50;;;;;;4978110;28;20444;-69
2021/09/05 09:53:49;;;;;;;7.53;5.50;;;55.80;11.70;;;;;;4987477;28;20546;-70
2021/09/05 09:56:17;;;;;;;5.70;4.87;;;55.90;11.80;;;;;;4977186;28;20494;-71
2021/09/05 09:58:45;;;;;;;5.43;4.93;;;56.20;11.30;;;;;;4990390;28;20530;-69
2021/09/05 10:01:15;;;;;;;5.43;4.93;;;56.30;11.60;;;;;;4985913;28;20468;-70
2021/09/05 10:03:44;;;;;;;4.27;3.87;;;56.30;10.80;;;;;;4989716;28;20866;-70
2021/09/05 10:06:12;;;;;;;5.80;5.30;;;56.60;10.90;;;;;;4978050;28;20451;-69
2021/09/05 10:08:41;;;;;;;5.40;4.13;;;56.50;10.60;;;;;;4973267;28;20535;-70
2021/09/05 10:11:11;;;;;;;5.67;4.50;;;56.40;10.30;;;;;;4988928;28;20471;-70
2021/09/05 10:13:39;;;;;;;5.97;5.30;;;56.30;10.80;;;;;;4990513;28;20841;-69
2021/09/05 10:16:08;;;;;;;5.80;5.20;;;56.40;10.80;;;;;;4989528;28;20443;-69
2021/09/05 10:18:39;;;;;;;4.77;4.37;;;56.50;11.00;;;;;;4988794;28;20867;-70
2021/09/05 10:21:06;;;;;;;5.00;4.60;;;56.70;10.90;;;;;;4992046;28;20834;-69
2021/09/05 10:23:36;;;;;;;5.00;4.60;;;56.70;10.40;;;;;;4973965;28;20448;-71
2021/09/05 10:26:06;;;;;;;5.17;4.30;;;56.50;10.10;;;;;;4977380;28;20492;-70
2021/09/05 10:28:37;;;;;;;4.70;4.30;;;56.30;10.20;;;;;;4982122;28;20990;-69
2021/09/05 10:31:05;;;;;;;4.77;4.37;;;56.30;10.90;;;;;;4984225;28;20530;-69
2021/09/05 10:33:34;;;;;;;5.93;5.13;;;56.50;10.90;;;;;;4992149;28;20519;-70
2021/09/05 10:36:09;;;;;;;5.63;4.30;;;56.70;10.70;;;;;;4982926;28;20522;-69
2021/09/05 10:38:37;;;;;;;4.53;4.13;;;56.70;10.30;;;;;;4993023;28;20529;-69
2021/09/05 10:41:08;;;;;;;5.00;4.30;;;56.80;10.30;;;;;;4992292;28;20457;-70
2021/09/05 10:44:03;;;;;;;4.80;4.40;;;56.80;10.60;;;;;;4981405;28;20468;-69
2021/09/05 10:46:36;;;;;;;5.10;4.00;;;56.80;10.30;;;;;;4978538;28;20483;-70
2021/09/05 10:49:05;;;;;;;5.03;4.63;;;56.80;10.10;;;;;;4976874;28;20530;-70
2021/09/05 10:51:37;;;;;;;4.20;3.90;;;56.60;10.20;;;;;;4987080;28;20476;-69
2021/09/05 10:54:08;;;;;;;4.33;3.93;;;56.40;9.90;;;;;;4990551;28;20926;-70
2021/09/05 10:56:37;;;;;;;4.30;3.90;;;55.90;10.00;;;;;;4970460;28;20432;-70
2021/09/05 10:59:07;;;;;;;4.37;3.97;;;55.40;9.60;;;;;;4974966;28;20536;-69
2021/09/05 11:01:37;;;;;;;4.83;4.27;;;54.50;9.30;;;;;;4989791;28;20483;-69
2021/09/05 11:04:29;;;;;;;5.50;3.80;;;53.70;10.00;;;;;;4992144;28;20475;-72
2021/09/05 11:07:01;;;;;;;3.97;3.50;;;52.60;10.40;;;;;;4975738;28;20828;-69
2021/09/05 11:09:45;;;;;;;5.07;4.27;;;51.40;10.60;;;;;;4976472;28;20444;-69
2021/09/05 11:12:15;;;;;;;4.60;4.17;;;50.30;11.10;;;;;;4991694;28;20491;-69
2021/09/05 11:15:02;;;;;;;4.73;4.23;;;49.70;11.20;;;;;;4992119;28;20439;-70
2021/09/05 11:17:30;;;;;;;4.20;3.73;;;48.80;11.40;;;;;;4972408;28;20523;-69
2021/09/05 11:19:59;;;;;;;4.37;3.97;;;47.90;12.30;;;;;;4984463;28;20452;-70
2021/09/05 11:22:32;;;;;;;4.50;3.97;;;47.30;12.40;;;;;;4976156;28;20440;-68
2021/09/05 11:25:24;;;;;;;4.77;3.90;;;46.60;12.60;;;;;;4986124;28;20447;-68
2021/09/05 11:28:10;;;;;;;5.20;4.53;;;45.80;12.90;;;;;;4988487;28;21012;-69
2021/09/05 11:30:40;;;;;;;4.47;4.07;;;45.30;13.00;;;;;;4987607;28;20440;-70
2021/09/05 11:33:10;;;;;;;5.00;4.60;;;44.80;14.00;;;;;;4974507;28;21101;-70
2021/09/05 11:35:38;;;;;;;6.63;5.13;;;44.30;14.60;;;;;;4983599;28;20817;-68
2021/09/05 11:38:06;;;;;;;6.20;4.47;;;43.90;14.90;;;;;;4989987;28;20452;-72
2021/09/05 11:40:45;;;;;;;5.10;4.70;;;43.40;14.50;;;;;;4988433;28;20450;-68
2021/09/05 11:43:12;;;;;;;4.90;4.40;;;43.00;15.30;;;;;;4980619;28;20455;-69
2021/09/05 11:45:42;;;;;;;5.00;4.37;;;42.40;15.80;;;;;;4990505;28;20473;-71
2021/09/05 11:48:10;;;;;;;4.90;4.10;;;42.00;17.30;;;;;;4985688;28;20534;-68
2021/09/05 11:50:40;;;;;;;5.07;3.87;;;41.60;16.70;;;;;;4974348;28;20518;-69
2021/09/05 11:53:19;;;;;;;4.90;3.80;;;41.20;16.50;;;;;;4979242;28;20876;-70
2021/09/05 11:55:55;;;;;;;4.50;4.10;;;40.90;17.20;;;;;;4974386;28;20446;-70
2021/09/05 11:58:22;;;;;;;7.43;4.50;;;40.50;16.30;;;;;;4980090;28;20531;-68
2021/09/05 12:00:56;;;;;;;4.90;4.40;;;40.10;17.60;;;;;;4991725;28;20444;-68
2021/09/05 12:03:30;;;;;;;4.43;4.03;;;39.60;18.00;;;;;;4991120;28;20793;-68
2021/09/05 12:05:57;;;;;;;4.60;4.20;;;39.00;17.80;;;;;;4978567;28;20799;-69
2021/09/05 12:08:25;;;;;;;5.27;3.80;;;38.60;19.60;;;;;;4991440;28;20445;-68
2021/09/05 12:11:04;;;;;;;4.50;3.73;;;38.20;18.00;;;;;;4987267;28;20487;-68
2021/09/05 12:13:47;;;;;;;5.80;3.97;;;37.60;18.80;;;;;;4974012;28;20488;-69
2021/09/05 12:16:22;;;;;;;5.93;3.60;;;37.10;19.70;;;;;;4979052;28;20439;-69
2021/09/05 12:19:03;;;;;;;5.70;4.07;;;36.70;20.00;;;;;;4991524;28;20490;-68
2021/09/05 12:21:31;;;;;;;4.60;4.03;;;36.40;20.80;;;;;;4986444;28;20443;-68
2021/09/05 12:23:58;;;;;;;4.60;3.83;;;36.10;20.40;;;;;;4991346;28;20938;-68
2021/09/05 12:26:25;;;;;;;4.90;4.00;;;35.70;20.80;;;;;;4989793;28;20949;-68
2021/09/05 12:29:02;;;;;;;5.50;4.50;;;35.40;21.00;;;;;;4990568;28;20440;-69
2021/09/05 12:31:45;;;;;;;4.73;3.80;;;35.10;21.50;;;;;;4990591;28;20441;-68
2021/09/05 12:34:41;;;;;;;4.93;3.60;;;34.80;22.70;;;;;;4978875;28;21039;-68
2021/09/05 12:37:13;;;;;;;5.30;4.50;;;34.50;21.60;;;;;;4976241;28;20439;-68
2021/09/05 12:39:41;;;;;;;4.77;3.70;;;34.20;21.70;;;;;;4990078;28;20450;-68
2021/09/05 12:42:10;;;;;;;4.90;4.10;;;34.00;22.60;;;;;;4990312;28;20447;-68
2021/09/05 12:44:42;;;;;;;5.83;4.00;;;33.60;22.50;;;;;;4989070;28;21008;-70
2021/09/05 12:47:11;;;;;;;7.17;4.37;;;33.40;23.00;;;;;;4990999;28;20440;-68
2021/09/05 12:49:41;;;;;;;5.53;3.43;;;33.10;23.90;;;;;;4988955;28;20444;-68
2021/09/05 12:52:09;;;;;;;5.00;3.83;;;32.70;23.90;;;;;;4981067;28;20432;-68
2021/09/05 12:54:39;;;;;;;4.77;3.73;;;32.30;23.60;;;;;;4984626;28;21298;-69
2021/09/05 12:57:07;;;;;;;9.50;3.70;;;32.00;25.40;;;;;;4978857;28;20860;-68